Time;durP1;ratioP1;P1;durP2;ratioP2;P2;SDS_P1;SDS_P2;PMS_P1;PMS_P2;Temp;Humidity;BMP_temperature;BMP_pressure;BME280_temperature;BME280_humidity;BME280_pressure;Samples;Min_cycle;Max_cycle;Signal;HPM_P1;HPM_P2
2021/08/07 00:00:47;;;;;;;;;;;;;;;;;;;;;
2021/08/07 00:07:03;;;;;;;8.13;6.77;;;16.50;99.90;;;;;;6090676;23;20412;-88
2021/08/07 00:16:46;;;;;;;12.07;11.13;;;16.40;99.90;;;;;;6007794;23;20449;-89
2021/08/07 00:19:38;;;;;;;12.30;11.60;;;16.20;99.90;;;;;;6108962;23;20459;-89
2021/08/07 00:22:45;;;;;;;13.67;12.97;;;16.20;99.90;;;;;;6109041;23;20414;-90
2021/08/07 00:25:33;;;;;;;14.97;14.27;;;16.20;99.90;;;;;;6098855;23;20418;-89
2021/08/07 00:31:27;;;;;;;19.40;18.47;;;16.10;99.90;;;;;;6101594;23;20446;-89
2021/08/07 00:35:14;;;;;;;;;;;;;;;;;;;;;
2021/08/07 00:41:51;;;;;;;30.27;28.77;;;15.80;99.90;;;;;;6007306;23;20411;-88
2021/08/07 00:54:31;;;;;;;30.47;29.07;;;15.60;99.90;;;;;;6006669;23;20410;-89
2021/08/07 00:57:49;;;;;;;;;;;;;;;;;;;;;
2021/08/07 01:04:26;;;;;;;46.93;44.63;;;15.40;99.90;;;;;;5761858;24;20474;-89
2021/08/07 01:23:36;;;;;;;43.67;41.87;;;15.10;99.90;;;;;;5895928;24;20413;-89
2021/08/07 01:49:33;;;;;;;;;;;;;;;;;;;;;
2021/08/07 02:02:11;;;;;;;;;;;;;;;;;;;;;
2021/08/07 02:21:39;;;;;;;;;;;;;;;;;;;;;
2021/08/07 02:25:21;;;;;;;137.50;131.53;;;13.90;99.90;;;;;;6138338;23;20813;-87
2021/08/07 03:11:20;;;;;;;;;;;;;;;;;;;;;
2021/08/07 03:14:30;;;;;;;131.27;125.47;;;13.80;99.90;;;;;;6023681;23;20426;-91
2021/08/07 03:20:46;;;;;;;126.67;121.27;;;13.60;99.90;;;;;;6108464;23;20511;-91
2021/08/07 03:23:16;;;;;;;131.57;126.07;;;13.60;99.90;;;;;;6108077;23;20417;-89
2021/08/07 03:26:28;;;;;;;;;;;;;;;;;;;;;
2021/08/07 03:41:20;;;;;;;148.53;142.20;;;13.10;99.90;;;;;;5834631;24;20436;-89
2021/08/07 03:50:33;;;;;;;153.23;146.50;;;13.10;99.90;;;;;;5872288;24;20458;-87
2021/08/07 03:53:00;;;;;;;158.53;151.47;;;13.20;99.90;;;;;;5897336;24;20858;-81
2021/08/07 03:55:27;;;;;;;158.63;151.77;;;13.30;99.90;;;;;;5990414;23;20514;-80
2021/08/07 03:57:59;;;;;;;154.97;148.13;;;13.40;99.90;;;;;;6099489;23;20450;-90
2021/08/07 04:00:29;;;;;;;156.93;149.83;;;13.40;99.90;;;;;;6109155;23;20462;-89
2021/08/07 04:03:01;;;;;;;158.47;151.50;;;13.50;99.90;;;;;;6101562;23;20475;-89
2021/08/07 04:05:37;;;;;;;159.50;152.07;;;13.60;99.90;;;;;;6103366;23;20407;-90
2021/08/07 04:08:16;;;;;;;158.70;151.60;;;13.70;99.90;;;;;;6108921;23;20417;-89
2021/08/07 04:11:10;;;;;;;153.23;146.50;;;13.90;99.90;;;;;;6106674;23;20437;-88
2021/08/07 04:16:42;;;;;;;149.07;142.37;;;14.00;99.90;;;;;;6094962;23;20442;-90
2021/08/07 04:19:09;;;;;;;142.83;136.73;;;14.00;99.90;;;;;;6108580;23;20408;-78
2021/08/07 04:24:58;;;;;;;139.20;132.43;;;14.00;99.90;;;;;;6079369;23;20535;-84
2021/08/07 04:27:26;;;;;;;133.43;126.90;;;14.00;99.90;;;;;;6097523;23;20479;-82
2021/08/07 04:29:54;;;;;;;122.00;116.60;;;14.00;99.90;;;;;;6106928;23;20996;-79
2021/08/07 04:32:21;;;;;;;122.00;116.70;;;14.00;99.90;;;;;;6096986;23;20406;-79
2021/08/07 04:34:48;;;;;;;119.00;114.00;;;14.00;99.90;;;;;;6097437;23;20492;-79
2021/08/07 04:37:15;;;;;;;113.10;108.60;;;14.00;99.90;;;;;;6097319;23;20469;-79
2021/08/07 04:39:42;;;;;;;115.77;110.87;;;14.00;99.90;;;;;;6095823;23;20484;-79
2021/08/07 04:42:09;;;;;;;116.37;111.27;;;14.10;99.90;;;;;;6107227;23;20408;-78
2021/08/07 04:44:36;;;;;;;118.77;113.87;;;14.20;99.90;;;;;;6097096;23;20406;-78
2021/08/07 04:47:05;;;;;;;117.87;112.87;;;14.20;99.90;;;;;;6097224;23;20404;-79
2021/08/07 04:49:35;;;;;;;118.00;111.73;;;14.40;99.90;;;;;;6097675;23;20923;-87
2021/08/07 04:52:02;;;;;;;110.00;105.27;;;14.40;99.90;;;;;;6096924;23;20412;-81
2021/08/07 04:54:29;;;;;;;107.53;103.13;;;14.50;99.90;;;;;;6106644;23;20415;-80
2021/08/07 04:56:57;;;;;;;93.57;89.77;;;14.60;99.90;;;;;;6095776;23;20407;-78
2021/08/07 04:59:48;;;;;;;89.80;86.10;;;14.60;99.90;;;;;;6097070;23;20441;-88
2021/08/07 05:02:24;;;;;;;92.20;88.70;;;14.70;99.90;;;;;;6106985;23;20462;-87
2021/08/07 05:05:04;;;;;;;66.50;63.90;;;14.80;99.90;;;;;;6108062;23;20415;-87
2021/08/07 05:07:36;;;;;;;78.63;75.30;;;14.80;99.90;;;;;;6109836;23;20412;-84
2021/08/07 05:16:20;;;;;;;50.83;48.70;;;15.10;99.90;;;;;;6105116;23;20447;-90
2021/08/07 05:19:20;;;;;;;53.17;50.77;;;15.20;99.90;;;;;;6106259;23;20757;-88
2021/08/07 05:21:47;;;;;;;44.13;42.40;;;15.30;99.90;;;;;;6107230;23;20483;-89
2021/08/07 05:24:14;;;;;;;37.90;36.40;;;15.40;99.90;;;;;;6106858;23;20435;-90
2021/08/07 05:26:41;;;;;;;35.30;33.50;;;15.50;99.90;;;;;;6105738;23;20498;-84
2021/08/07 05:29:08;;;;;;;37.37;34.83;;;15.70;99.90;;;;;;6096606;23;20490;-84
2021/08/07 05:31:35;;;;;;;29.57;28.20;;;15.60;99.90;;;;;;6097006;23;20440;-84
2021/08/07 05:34:03;;;;;;;23.13;22.03;;;15.70;99.90;;;;;;6096812;23;21097;-86
2021/08/07 05:36:30;;;;;;;23.13;21.97;;;15.80;99.90;;;;;;6096956;23;20514;-82
2021/08/07 05:38:58;;;;;;;20.73;19.73;;;15.90;99.90;;;;;;6106860;23;20955;-83
2021/08/07 05:41:25;;;;;;;16.40;15.60;;;16.00;99.90;;;;;;6105329;23;20462;-81
2021/08/07 05:43:52;;;;;;;16.57;15.70;;;16.10;99.90;;;;;;6096987;23;20400;-82
2021/08/07 05:46:19;;;;;;;12.17;11.50;;;16.20;99.90;;;;;;6106778;23;20506;-83
2021/08/07 05:48:47;;;;;;;12.47;9.30;;;16.30;99.90;;;;;;6097036;23;20403;-84
2021/08/07 05:51:15;;;;;;;11.50;9.60;;;16.40;99.90;;;;;;6097020;23;20510;-83
2021/08/07 05:53:42;;;;;;;8.67;7.93;;;16.60;99.90;;;;;;6106653;23;20420;-82
2021/08/07 05:56:09;;;;;;;7.90;7.40;;;16.60;99.90;;;;;;6095216;23;20403;-82
2021/08/07 05:58:38;;;;;;;9.43;7.60;;;16.80;99.90;;;;;;6106330;23;20947;-82
2021/08/07 06:01:05;;;;;;;7.97;7.27;;;16.90;99.90;;;;;;6096974;23;20443;-85
2021/08/07 06:03:33;;;;;;;7.70;6.10;;;17.00;99.90;;;;;;6068027;23;20393;-80
2021/08/07 06:09:32;;;;;;;;;;;;;;;;;;;;;
2021/08/07 06:12:25;;;;;;;5.70;5.20;;;17.30;99.90;;;;;;6010881;23;20462;-89
2021/08/07 06:15:29;;;;;;;;;;;;;;;;;;;;;
2021/08/07 06:21:09;;;;;;;5.53;3.70;;;17.60;96.00;;;;;;6033420;23;20452;-86
2021/08/07 06:24:02;;;;;;;9.83;3.30;;;17.60;94.10;;;;;;6078263;23;20503;-90
2021/08/07 06:26:30;;;;;;;4.30;2.73;;;17.70;91.80;;;;;;6066833;23;20416;-90
2021/08/07 06:29:01;;;;;;;5.80;2.57;;;17.60;90.70;;;;;;6078644;23;20813;-86
2021/08/07 06:31:36;;;;;;;3.90;2.47;;;17.60;86.40;;;;;;6078304;23;20432;-89
2021/08/07 06:34:03;;;;;;;4.87;2.27;;;17.70;86.60;;;;;;6078022;23;20460;-86
2021/08/07 06:36:36;;;;;;;5.57;2.50;;;17.70;81.10;;;;;;6080929;23;20440;-89
2021/08/07 06:39:06;;;;;;;4.87;1.97;;;17.80;82.30;;;;;;6079924;23;20768;-90
2021/08/07 06:42:01;;;;;;;4.73;2.27;;;17.90;81.60;;;;;;6080687;23;20937;-86
2021/08/07 06:44:30;;;;;;;7.63;2.20;;;18.10;78.20;;;;;;6079433;23;20436;-83
2021/08/07 06:46:56;;;;;;;5.53;2.30;;;18.20;77.70;;;;;;6069543;23;20400;-80
2021/08/07 06:49:23;;;;;;;3.40;2.13;;;18.30;75.50;;;;;;6078949;23;20708;-80
2021/08/07 06:51:52;;;;;;;6.07;2.47;;;18.50;74.70;;;;;;6069606;23;20447;-85
2021/08/07 06:54:19;;;;;;;9.00;2.17;;;18.50;70.90;;;;;;6069522;23;20404;-80
2021/08/07 06:57:07;;;;;;;7.83;2.43;;;18.60;72.60;;;;;;6068287;23;20405;-83
2021/08/07 07:00:16;;;;;;;4.23;2.67;;;18.60;68.80;;;;;;6078520;23;20494;-83
2021/08/07 07:02:44;;;;;;;6.03;2.23;;;18.70;70.00;;;;;;6056204;23;20420;-79
2021/08/07 07:05:11;;;;;;;8.40;2.53;;;18.70;70.50;;;;;;6069579;23;20495;-79
2021/08/07 07:07:38;;;;;;;7.63;2.40;;;18.80;68.60;;;;;;6069044;23;20412;-79
2021/08/07 07:10:08;;;;;;;4.20;1.93;;;18.90;68.60;;;;;;6067905;23;20440;-81
2021/08/07 07:12:34;;;;;;;6.20;2.10;;;18.90;64.40;;;;;;6064947;23;20404;-79
2021/08/07 07:15:01;;;;;;;4.57;2.30;;;19.00;65.00;;;;;;6067490;23;20915;-80
2021/08/07 07:17:28;;;;;;;4.20;1.97;;;19.20;63.30;;;;;;6067865;23;20443;-79
2021/08/07 07:20:35;;;;;;;7.07;2.43;;;19.40;60.70;;;;;;6068895;23;20921;-82
2021/08/07 07:26:32;;;;;;;8.67;2.50;;;19.90;55.00;;;;;;5977348;23;20929;-83
2021/08/07 09:46:28;;;;;;;4.47;1.40;;;23.70;20.70;;;;;;6072123;23;20430;31
2021/08/07 09:48:56;;;;;;;4.03;1.60;;;23.80;19.00;;;;;;6039382;23;20444;-78
2021/08/07 09:51:25;;;;;;;5.97;1.70;;;24.70;19.40;;;;;;6039332;23;20470;-79
2021/08/07 09:54:05;;;;;;;5.37;1.37;;;25.10;17.80;;;;;;6048533;23;20455;-76
2021/08/07 09:57:02;;;;;;;6.70;1.10;;;24.40;15.40;;;;;;6037745;23;20405;-82
2021/08/07 09:59:30;;;;;;;4.43;1.40;;;23.90;19.10;;;;;;6038967;23;20439;-78
2021/08/07 10:01:59;;;;;;;6.90;1.33;;;23.50;18.20;;;;;;6038769;23;20421;-78
2021/08/07 10:04:26;;;;;;;4.87;1.67;;;23.60;19.50;;;;;;6048745;23;20413;-81
2021/08/07 10:07:08;;;;;;;4.53;1.00;;;23.10;21.00;;;;;;6039106;23;20874;-79
2021/08/07 10:09:36;;;;;;;5.57;1.20;;;23.20;18.80;;;;;;6039267;23;20812;-81
2021/08/07 10:12:06;;;;;;;4.83;1.37;;;23.40;20.60;;;;;;6048098;23;20432;-81
2021/08/07 10:14:33;;;;;;;5.40;1.10;;;23.50;17.50;;;;;;6041286;23;20839;-80
2021/08/07 10:17:03;;;;;;;5.67;1.40;;;23.50;18.00;;;;;;6041322;23;20532;-79
2021/08/07 10:19:32;;;;;;;6.72;1.40;;;23.50;17.90;;;;;;6039751;23;20425;-80
2021/08/07 10:21:59;;;;;;;3.70;1.10;;;24.30;15.60;;;;;;6041361;23;20161;-82
2021/08/07 10:24:28;;;;;;;3.83;1.17;;;25.40;13.90;;;;;;6041075;23;20734;-81
2021/08/07 10:26:58;;;;;;;3.50;1.27;;;26.50;12.30;;;;;;6039393;23;20409;-81
2021/08/07 10:29:29;;;;;;;4.10;1.30;;;26.30;6.60;;;;;;6041193;23;20412;-85
2021/08/07 10:31:57;;;;;;;3.83;1.10;;;25.30;12.40;;;;;;6040821;23;20536;-80
2021/08/07 10:34:25;;;;;;;4.23;1.30;;;24.70;12.60;;;;;;6045038;23;20524;-80
2021/08/07 10:36:54;;;;;;;4.30;1.40;;;23.90;13.60;;;;;;6069331;23;20903;-81
2021/08/07 10:39:21;;;;;;;8.33;2.43;;;23.60;16.10;;;;;;6079110;23;20483;-79
2021/08/07 10:41:50;;;;;;;5.83;1.10;;;23.00;14.40;;;;;;6068302;23;20404;-81
2021/08/07 10:44:17;;;;;;;5.43;2.13;;;22.90;17.30;;;;;;6078904;23;20412;-80
2021/08/07 10:46:44;;;;;;;4.63;1.63;;;22.90;18.10;;;;;;6069234;23;20952;-81
2021/08/07 10:49:13;;;;;;;8.30;1.57;;;22.50;18.40;;;;;;6069476;23;20405;-83
2021/08/07 10:51:43;;;;;;;3.90;1.57;;;22.50;20.20;;;;;;6069541;23;20519;-81
2021/08/07 10:54:32;;;;;;;12.80;1.93;;;22.10;21.50;;;;;;6069678;23;20411;-81
2021/08/07 10:56:59;;;;;;;5.40;1.50;;;21.90;20.70;;;;;;6068095;23;20411;-80
2021/08/07 10:59:27;;;;;;;5.67;1.37;;;21.80;19.40;;;;;;6069627;23;20408;-83
2021/08/07 11:01:56;;;;;;;5.53;1.43;;;21.60;20.20;;;;;;6069353;23;20447;-82
2021/08/07 11:04:26;;;;;;;5.73;1.20;;;21.30;20.60;;;;;;6063419;23;20397;-81
2021/08/07 11:07:08;;;;;;;4.83;1.83;;;21.20;20.60;;;;;;6069144;23;20488;-82
2021/08/07 11:09:38;;;;;;;5.20;1.27;;;21.20;20.60;;;;;;6078992;23;20416;-77
2021/08/07 11:29:17;;;;;;;3.80;1.03;;;22.40;16.90;;;;;;5573366;24;20425;-77
2021/08/07 11:32:04;;;;;;;5.70;1.37;;;22.90;14.30;;;;;;5948752;24;20503;-78
2021/08/07 11:34:30;;;;;;;5.37;0.97;;;23.70;12.90;;;;;;5990259;24;20439;-78
2021/08/07 11:37:19;;;;;;;3.50;0.90;;;24.70;8.30;;;;;;6016542;23;20440;-80
2021/08/07 11:40:11;;;;;;;5.47;1.20;;;24.90;8.50;;;;;;6067605;23;20464;-80
2021/08/07 11:42:46;;;;;;;4.20;1.10;;;24.70;7.90;;;;;;6069104;23;20404;-80
2021/08/07 11:45:19;;;;;;;4.10;1.20;;;24.70;8.90;;;;;;6069113;23;20421;-78
2021/08/07 11:47:49;;;;;;;4.80;2.00;;;25.50;8.40;;;;;;6078204;23;20455;-79
2021/08/07 11:50:19;;;;;;;3.60;0.93;;;25.50;7.50;;;;;;6078616;23;20416;-79
2021/08/07 11:52:46;;;;;;;4.23;1.10;;;25.60;6.00;;;;;;6068370;23;20436;-79
2021/08/07 11:55:13;;;;;;;4.17;0.87;;;26.10;8.40;;;;;;6067405;23;20465;-78
2021/08/07 11:57:43;;;;;;;4.13;1.33;;;25.70;5.30;;;;;;6068592;23;20500;-79
2021/08/07 12:00:27;;;;;;;4.83;1.00;;;26.30;4.50;;;;;;6078304;23;20412;-79
2021/08/07 12:03:04;;;;;;;3.50;0.90;;;27.10;8.00;;;;;;6068863;23;20442;-78
2021/08/07 12:05:35;;;;;;;6.57;1.40;;;26.50;1.10;;;;;;6068413;23;20892;-79
2021/08/07 12:08:08;;;;;;;4.63;1.10;;;26.90;1.00;;;;;;6069005;23;20492;-78
2021/08/07 12:10:48;;;;;;;6.97;1.30;;;27.80;1.00;;;;;;6067184;23;20456;-78
2021/08/07 12:13:23;;;;;;;3.50;0.83;;;27.50;1.00;;;;;;6067862;23;20968;-78
2021/08/07 12:15:56;;;;;;;3.27;0.73;;;27.70;1.00;;;;;;6078509;23;20463;-78
2021/08/07 12:18:24;;;;;;;6.10;1.20;;;27.50;1.00;;;;;;6078504;23;20404;-79
2021/08/07 12:20:51;;;;;;;5.87;1.00;;;28.00;1.00;;;;;;6067910;23;20400;-78
2021/08/07 12:23:20;;;;;;;4.70;1.00;;;28.30;1.00;;;;;;6068716;23;20460;-78
2021/08/07 12:26:02;;;;;;;3.60;0.90;;;27.20;1.00;;;;;;6067217;23;20401;-78
2021/08/07 12:28:37;;;;;;;3.87;1.10;;;27.70;1.00;;;;;;6077412;23;20457;-78
2021/08/07 12:31:18;;;;;;;3.73;1.00;;;28.80;1.00;;;;;;6068412;23;20458;-79
2021/08/07 12:33:45;;;;;;;5.30;1.50;;;29.60;1.00;;;;;;6067920;23;20961;-80
2021/08/07 12:36:14;;;;;;;6.30;1.33;;;29.80;1.00;;;;;;6077384;23;20408;-78
2021/08/07 12:38:42;;;;;;;4.20;1.03;;;29.60;1.00;;;;;;6068651;23;20416;-77
2021/08/07 12:41:22;;;;;;;;;;;;;;;;;;;;;
2021/08/07 12:44:01;;;;;;;3.40;0.90;;;30.60;1.00;;;;;;6042650;23;20394;-80
2021/08/07 12:46:47;;;;;;;4.10;0.87;;;30.90;1.00;;;;;;6077985;23;20460;-78
2021/08/07 12:49:15;;;;;;;3.40;0.83;;;30.30;1.00;;;;;;6078247;23;20408;-78
2021/08/07 12:51:44;;;;;;;3.37;0.90;;;28.70;1.00;;;;;;6068056;23;20443;-78
2021/08/07 13:01:13;;;;;;;3.70;0.90;;;27.40;1.00;;;;;;5720458;25;20520;-79
2021/08/07 13:03:58;;;;;;;4.63;0.90;;;28.50;1.00;;;;;;5776241;24;20451;-80
2021/08/07 13:13:14;;;;;;;5.03;1.23;;;29.30;1.00;;;;;;5825300;24;20451;-79
2021/08/07 13:15:47;;;;;;;3.40;0.90;;;28.20;1.00;;;;;;5843789;24;20424;-80
2021/08/07 13:18:15;;;;;;;4.90;1.10;;;28.10;1.00;;;;;;6009001;23;21039;-79
2021/08/07 13:20:46;;;;;;;4.20;1.00;;;27.70;1.00;;;;;;6068158;23;20885;-79
2021/08/07 13:23:13;;;;;;;4.57;0.90;;;27.80;1.00;;;;;;6068265;23;20405;-80
2021/08/07 13:25:41;;;;;;;4.13;1.40;;;28.00;1.00;;;;;;6066928;23;20409;-80
2021/08/07 13:28:10;;;;;;;5.40;1.30;;;29.20;1.00;;;;;;6077531;23;20459;-78
2021/08/07 13:30:46;;;;;;;3.37;0.80;;;28.70;1.00;;;;;;6077795;23;20953;-79
2021/08/07 13:33:12;;;;;;;4.57;1.00;;;28.10;1.00;;;;;;6077461;23;20489;-80
2021/08/07 13:35:40;;;;;;;3.57;1.10;;;27.90;1.00;;;;;;6068246;23;20404;-79
2021/08/07 13:38:08;;;;;;;6.73;1.13;;;28.10;1.00;;;;;;6077456;23;20387;-80
2021/08/07 13:40:35;;;;;;;4.47;1.30;;;28.00;1.00;;;;;;6076079;23;20539;-80
2021/08/07 13:43:02;;;;;;;5.37;1.00;;;27.00;1.00;;;;;;6077743;23;20416;-79
2021/08/07 13:45:29;;;;;;;4.03;1.00;;;26.70;1.00;;;;;;6068161;23;20440;-79
2021/08/07 13:48:10;;;;;;;3.40;0.90;;;25.30;1.00;;;;;;6067283;23;20440;-80
2021/08/07 13:51:01;;;;;;;3.47;0.90;;;25.00;1.00;;;;;;6068188;23;20405;-80
2021/08/07 13:53:31;;;;;;;4.00;1.10;;;24.60;1.00;;;;;;6067730;23;20448;-81
2021/08/07 13:56:02;;;;;;;4.20;1.00;;;24.60;1.00;;;;;;6076246;23;20456;-80
2021/08/07 14:05:52;;;;;;;3.50;0.90;;;24.00;1.00;;;;;;5715419;25;20475;-86
2021/08/07 14:11:24;;;;;;;4.10;1.10;;;24.40;1.00;;;;;;5977095;23;20475;-83
2021/08/07 14:13:52;;;;;;;5.67;1.10;;;24.50;1.00;;;;;;6068023;23;20995;-83
2021/08/07 14:16:19;;;;;;;4.67;0.93;;;24.40;1.00;;;;;;6077337;23;20805;-87
2021/08/07 14:18:46;;;;;;;3.93;1.13;;;24.10;1.00;;;;;;6077228;23;20503;-83
2021/08/07 14:21:14;;;;;;;4.43;1.10;;;23.80;1.00;;;;;;6068110;23;20443;-85
2021/08/07 14:23:50;;;;;;;3.90;0.90;;;23.60;1.00;;;;;;6077700;23;20710;-84
2021/08/07 14:33:00;;;;;;;3.60;1.17;;;23.30;2.10;;;;;;5714288;24;20458;-80
2021/08/07 14:35:29;;;;;;;4.23;1.00;;;24.10;1.00;;;;;;5839279;24;20432;-82
2021/08/07 14:37:59;;;;;;;3.90;1.20;;;24.60;1.00;;;;;;5959575;24;20422;-81
2021/08/07 14:40:27;;;;;;;4.57;0.90;;;24.40;1.00;;;;;;6010115;23;20432;-82
2021/08/07 14:42:54;;;;;;;3.77;0.90;;;24.00;1.00;;;;;;6075413;23;20504;-81
2021/08/07 14:45:25;;;;;;;4.60;1.30;;;23.90;1.00;;;;;;6075635;23;20491;-83
2021/08/07 14:47:59;;;;;;;5.40;1.17;;;24.10;1.00;;;;;;6065729;23;20456;-82
2021/08/07 14:50:28;;;;;;;3.20;0.90;;;24.20;1.00;;;;;;6075649;23;20749;-86
2021/08/07 14:52:56;;;;;;;4.97;0.97;;;24.60;1.00;;;;;;6066084;23;20515;-82
2021/08/07 14:55:36;;;;;;;3.20;0.80;;;24.30;1.00;;;;;;6065003;23;20444;-84
2021/08/07 14:58:23;;;;;;;4.80;1.13;;;24.50;1.00;;;;;;6075031;23;20740;-83
2021/08/07 15:00:51;;;;;;;4.17;1.00;;;24.00;1.00;;;;;;6042771;23;20754;-83
2021/08/07 15:03:18;;;;;;;4.13;1.20;;;24.00;1.00;;;;;;6077727;23;20511;-81
2021/08/07 15:05:48;;;;;;;5.10;1.00;;;23.80;1.00;;;;;;6077439;23;20792;-78
2021/08/07 15:08:14;;;;;;;3.33;0.83;;;23.70;1.00;;;;;;6076495;23;20440;-79
2021/08/07 15:10:41;;;;;;;3.50;1.00;;;23.50;1.00;;;;;;6075276;23;20408;-78
2021/08/07 15:13:08;;;;;;;4.30;1.67;;;23.60;1.00;;;;;;6067641;23;20819;-80
2021/08/07 15:15:37;;;;;;;3.80;1.10;;;23.50;1.00;;;;;;6067636;23;20881;-81
2021/08/07 15:18:04;;;;;;;4.20;1.40;;;23.70;1.00;;;;;;6068155;23;20429;-78
2021/08/07 15:20:31;;;;;;;4.80;1.40;;;23.70;1.00;;;;;;6067328;23;20401;-78
2021/08/07 15:22:58;;;;;;;5.17;2.27;;;23.70;1.00;;;;;;6067347;23;20405;-77
2021/08/07 15:25:25;;;;;;;7.60;1.30;;;23.80;1.00;;;;;;6066302;23;20400;-78
2021/08/07 15:27:53;;;;;;;5.30;1.13;;;23.50;1.00;;;;;;6077219;23;20420;-78
2021/08/07 15:30:20;;;;;;;4.87;1.80;;;23.30;1.00;;;;;;6067890;23;20405;-78
2021/08/07 15:32:49;;;;;;;9.20;1.17;;;23.10;1.00;;;;;;6066815;23;20452;-78
2021/08/07 15:35:17;;;;;;;5.17;1.50;;;23.00;1.00;;;;;;6077126;23;20417;-77
2021/08/07 15:37:45;;;;;;;3.50;1.10;;;22.90;2.10;;;;;;6067673;23;20440;-78
2021/08/07 15:40:14;;;;;;;6.30;1.13;;;22.80;3.90;;;;;;6066030;23;20413;-78
2021/08/07 15:42:41;;;;;;;5.37;1.20;;;22.90;1.70;;;;;;6066894;23;20448;-78
2021/08/07 15:45:10;;;;;;;4.40;1.27;;;22.80;2.50;;;;;;6077212;23;20455;-78
2021/08/07 15:47:37;;;;;;;5.83;1.30;;;22.80;4.70;;;;;;6076272;23;20448;-77
2021/08/07 15:50:10;;;;;;;4.60;1.20;;;22.80;5.40;;;;;;6067152;23;20413;-82
2021/08/07 15:52:37;;;;;;;4.20;1.13;;;22.90;3.50;;;;;;6077355;23;20464;-80
2021/08/07 15:55:05;;;;;;;6.63;1.70;;;23.00;1.00;;;;;;6065767;23;20457;-80
2021/08/07 15:57:32;;;;;;;4.63;2.23;;;23.10;4.00;;;;;;6077764;23;20416;-79
2021/08/07 15:59:59;;;;;;;5.00;1.20;;;23.10;2.70;;;;;;6078617;23;20425;-80
2021/08/07 16:02:38;;;;;;;;;;;;;;;;;;;;;
2021/08/07 16:05:54;;;;;;;5.47;1.10;;;23.80;2.80;;;;;;6046311;23;20420;-89
2021/08/07 16:08:44;;;;;;;3.50;1.00;;;24.70;1.00;;;;;;6078069;23;20417;-85
2021/08/07 16:11:57;;;;;;;;;;;;;;;;;;;;;
2021/08/07 16:14:41;;;;;;;7.33;1.20;;;25.60;1.00;;;;;;6079602;23;20449;-92
2021/08/07 16:17:29;;;;;;;3.47;1.10;;;25.10;1.00;;;;;;6069940;23;21044;-91
2021/08/07 16:23:54;;;;;;;4.37;1.30;;;24.20;1.80;;;;;;5950477;24;20961;-89
2021/08/07 16:26:56;;;;;;;6.37;1.20;;;23.80;2.30;;;;;;5879404;24;20517;-88
2021/08/07 16:29:42;;;;;;;4.30;1.10;;;23.40;3.30;;;;;;5879741;24;20859;-91
2021/08/07 16:32:43;;;;;;;4.27;1.20;;;23.30;5.50;;;;;;5882408;24;21135;-90
2021/08/07 16:35:48;;;;;;;5.03;1.33;;;23.00;5.40;;;;;;5871980;24;20425;-85
2021/08/07 16:38:26;;;;;;;4.00;1.20;;;23.00;6.10;;;;;;5867101;24;20418;-87
2021/08/07 16:44:39;;;;;;;4.83;1.13;;;24.40;2.20;;;;;;5880297;24;20559;-90
2021/08/07 16:50:08;;;;;;;3.60;1.10;;;24.20;1.00;;;;;;5952283;23;20445;-88
2021/08/07 16:52:47;;;;;;;;;;;;;;;;;;;;;
2021/08/07 16:55:46;;;;;;;;;;;;;;;;;;;;;
2021/08/07 16:58:53;;;;;;;4.43;0.90;;;24.00;3.50;;;;;;6081035;23;20412;-88
2021/08/07 17:08:38;;;;;;;;;;;;;;;;;;;;;
2021/08/07 19:53:42;;;;;;;5.33;1.43;;;18.00;42.50;;;;;;6091427;23;20447;-87
2021/08/07 19:56:40;;;;;;;4.23;1.83;;;18.00;43.80;;;;;;6019072;23;20899;-86
